Date,TemperatureHighF,TemperatureAvgF,TemperatureLowF,DewpointHighF,DewpointAvgF,DewpointLowF,HumidityHigh,HumidityAvg,HumidityLow,PressureMaxIn,PressureMinIn,WindSpeedMaxMPH,WindSpeedAvgMPH,GustSpeedMaxMPH,PrecipitationSumIn
2013-1-8,46,41,34,28,26,26,79,57,46,30.29,30.26,4,2,5,0.00
2013-1-9,58,50,33,48,44,32,99,82,62,30.37,30.30,11,3,11,0.00
2013-1-10,56,51,43,53,49,42,99,93,84,30.45,30.37,6,2,6,0.00
2013-1-11,54,48,40,53,48,-11,99,97,61,30.32,30.11,10,2,10,0.31
2013-1-12,71,62,52,61,56,52,99,83,58,30.18,30.12,7,2,7,0.01
2013-1-13,62,56,53,57,55,53,99,96,76,30.13,30.06,7,2,7,0.00
2013-1-14,56,55,53,56,55,53,99,99,99,30.13,30.06,4,1,4,1.15
2013-1-15,46,43,39,46,42,-8,99,98,10,30.13,30.00,5,1,5,1.43
2013-1-16,60,52,44,53,48,-1,99,89,10,30.00,29.93,17,3,17,0.15
2013-1-17,48,43,42,47,42,42,99,99,99,29.98,29.87,9,4,9,0.37
2013-1-18,36,26,21,28,24,21,99,91,63,30.36,30.09,0,0,0,0.00
2013-1-19,53,32,17,33,26,17,99,79,44,30.32,30.13,5,0,5,0.00
2013-1-20,49,40,30,29,25,18,91,54,39,30.06,30.00,17,6,17,0.02
2013-1-21,47,38,27,28,22,18,92,53,35,30.01,29.88,21,6,21,0.00
2013-1-22,26,18,12,3,-3,-7,54,40,23,30.03,29.85,21,9,21,0.02
2013-1-23,35,24,15,23,9,-5,78,52,39,30.12,29.92,20,8,20,0.13
2013-1-24,36,31,23,26,20,11,70,64,56,30.03,29.83,34,23,34,1.96
2013-1-25,36,28,15,36,27,13,99,96,89,30.06,29.91,27,7,27,1.96
2013-1-26,34,30,25,32,25,22,99,80,68,30.12,29.94,14,6,14,0.00
2013-1-27,34,26,18,28,24,18,99,91,72,30.34,30.22,5,2,5,0.04
2013-1-28,64,47,28,43,36,28,99,71,41,30.29,30.17,8,2,8,0.18
2013-1-29,69,57,35,53,45,-2,99,70,10,30.19,30.05,11,2,11,0.01
2013-1-30,57,54,40,57,53,40,99,99,99,30.03,29.52,15,6,15,4.65
2013-1-31,40,27,23,39,18,16,97,70,60,29.85,29.54,31,9,31,0.00
2013-2-1,34,18,12,28,6,2,97,59,46,30.10,29.81,24,10,24,0.11
2013-2-2,35,22,10,27,14,6,99,71,42,30.15,29.90,6,2,6,0.00
2013-2-3,36,28,22,27,22,18,92,79,65,29.89,29.77,25,11,25,0.34
2013-2-4,46,36,18,23,20,14,89,54,37,30.00,29.85,21,4,21,0.06
2013-2-5,47,40,30,34,29,22,91,67,45,29.92,29.86,14,4,14,0.01
2013-2-6,52,45,32,31,16,1,77,36,14,30.14,29.93,17,5,17,0.01
2013-2-7,40,37,31,34,30,20,99,78,56,30.19,30.03,6,2,6,0.17
2013-2-8,46,37,27,42,34,23,99,90,52,29.99,29.85,21,6,21,0.28
2013-2-9,51,33,25,23,16,6,86,55,17,30.25,29.95,24,8,24,0.13
2013-2-10,46,37,32,35,20,14,99,55,35,30.29,30.10,14,4,14,0.12
2013-2-11,56,49,21,55,40,10,99,74,39,30.08,29.95,19,5,19,0.12
2013-2-12,55,40,33,22,19,13,59,45,22,30.03,29.91,26,12,26,0.00
2013-2-13,44,37,32,43,37,31,99,99,99,29.77,29.61,23,4,23,0.31
2013-2-14,52,40,25,29,25,19,97,59,35,29.95,29.77,11,2,11,0.00
2013-2-15,56,41,25,36,30,23,99,69,30,30.01,29.91,11,4,11,0.06
2013-2-16,31,26,20,27,20,10,99,77,59,29.91,29.73,27,10,27,0.00
2013-2-17,28,18,12,8,5,1,73,58,39,30.00,29.80,27,14,27,0.05
2013-2-18,47,36,17,20,15,6,67,44,28,30.20,30.08,6,3,6,0.01
2013-2-19,48,37,30,39,24,18,99,61,42,30.07,29.81,30,9,30,0.12
2013-2-20,42,32,22,10,4,-1,56,32,17,30.01,29.87,22,10,30,0.05
2013-2-21,53,41,22,9,4,0,56,24,12,30.09,29.98,14,6,14,0.00
2013-2-22,35,33,29,35,33,29,99,99,99,30.14,26.99,9,1,9,0.15
2013-2-23,51,44,32,49,43,32,99,97,87,30.00,29.82,6,1,6,0.24
2013-2-24,42,41,40,41,40,38,99,96,86,29.83,29.81,17,7,17,0.00
2013-2-25,43,32,26,24,21,18,80,63,45,30.05,29.96,8,3,8,0.00
2013-2-28,25,25,25,24,23,23,98,94,90,29.92,29.90,15,12,15,0.00
2013-3-1,34,28,25,27,25,23,99,87,65,29.97,29.90,12,6,12,0.05
2013-3-2,34,27,18,28,22,15,99,85,66,29.95,29.90,16,6,16,0.06
2013-3-3,28,21,16,15,13,10,89,74,55,29.99,29.91,23,12,23,0.04
2013-3-4,49,36,18,20,11,-2,78,39,14,30.13,29.98,21,7,21,0.01
2013-3-5,41,37,30,40,36,22,99,95,63,30.12,29.82,4,1,4,0.58
2013-3-6,28,25,20,27,21,18,99,88,72,30.07,29.69,0,0,0,0.02
2013-3-7,34,29,22,27,24,22,99,82,72,30.23,30.11,21,7,21,0.00
2013-3-8,44,36,22,24,22,19,90,59,43,30.33,30.24,22,10,22,0.00
2013-3-20,39,34,28,28,15,5,98,52,24,29.91,29.89,11,8,11,1.33
2013-3-21,31,24,15,20,8,5,83,50,38,29.87,29.78,22,10,22,0.04
2013-3-22,48,33,14,14,10,-30,77,43,10,30.03,29.93,30,4,30,0.00
2013-3-23,51,39,32,36,31,23,91,73,48,30.06,29.97,6,2,6,0.00
2013-3-24,38,34,33,36,33,32,99,97,78,29.98,29.63,4,3,4,0.50
2013-3-25,32,26,23,26,24,21,99,89,71,29.85,29.61,0,0,0,0.13
2013-3-26,36,29,22,26,23,20,99,80,65,30.02,29.82,27,6,27,0.15
2013-3-27,38,30,23,23,19,17,94,65,48,30.24,30.11,26,9,26,0.01
2013-3-28,47,38,25,23,19,15,70,47,33,30.26,30.18,20,8,20,0.01
2013-3-29,53,38,23,30,21,14,86,55,21,30.32,30.25,16,4,16,0.00
2013-3-30,60,44,30,39,32,27,99,68,30,30.26,30.15,8,2,8,0.00
2013-3-31,56,50,41,50,45,37,99,83,67,30.14,29.97,14,3,14,0.00
2013-4-1,57,50,38,46,38,34,99,65,48,30.04,29.94,24,8,24,0.04
2013-4-2,52,45,30,29,18,12,75,36,22,30.19,30.06,16,6,16,0.00
2013-4-3,58,41,28,20,13,7,48,34,16,30.31,30.17,12,5,12,0.00
2013-4-4,37,32,30,34,27,-18,99,84,35,30.30,30.06,12,0,12,0.00
2013-4-5,53,43,33,44,37,30,99,80,45,30.07,29.97,20,8,20,0.00
2013-4-6,64,48,29,35,31,29,99,56,27,30.29,30.14,8,3,8,0.00
2013-4-7,68,51,36,41,38,31,94,64,34,30.29,30.20,10,2,10,0.00
2013-4-8,75,59,40,49,45,38,99,62,38,30.26,30.19,9,3,11,0.00
2013-4-9,81,71,41,54,48,41,99,48,31,30.34,30.24,10,3,10,0.00
2013-4-10,85,73,50,56,52,35,99,52,28,30.27,30.15,10,4,10,0.00
2013-4-11,75,62,50,60,54,50,99,78,46,30.14,29.90,10,3,10,0.15
2013-4-12,69,62,54,60,48,32,99,62,33,29.91,29.82,19,7,19,1.10
2013-4-13,67,53,43,37,31,21,72,48,20,30.11,29.94,22,10,22,0.05
2013-4-14,55,52,50,49,45,40,98,80,58,30.15,30.14,4,3,4,0.00
2013-4-15,56,52,47,56,52,47,99,99,98,30.25,30.12,6,2,6,0.40
2013-4-16,76,64,51,63,58,51,99,81,54,30.40,30.31,7,3,7,0.00
2013-4-17,71,61,55,63,59,55,99,92,67,30.39,30.27,11,3,11,0.17
2013-4-18,72,61,56,61,58,54,99,91,61,30.28,30.11,9,3,9,0.02
2013-4-19,60,57,45,60,57,45,99,99,99,30.11,29.90,14,5,14,0.86
2013-4-20,53,38,31,38,29,25,99,74,38,30.34,29.98,22,9,22,0.06
2013-4-21,60,43,29,34,30,26,99,66,32,30.47,30.33,7,2,7,0.00
2013-4-22,63,53,36,36,32,28,92,47,31,30.45,30.30,8,3,8,0.00
2013-4-23,70,50,28,45,37,26,99,67,37,30.34,30.21,6,2,6,0.00
2013-4-24,72,62,42,58,52,42,99,71,50,30.23,30.12,11,3,11,0.04
2013-4-25,75,57,34,45,26,5,99,37,10,30.34,30.19,19,7,19,0.00
2013-4-26,67,61,40,35,31,25,62,33,24,30.48,30.38,11,5,11,0.00
2013-4-27,60,51,47,50,46,43,99,85,60,30.42,30.34,4,2,4,0.09
2013-4-28,51,48,44,51,48,44,99,99,99,30.32,30.14,6,2,6,0.77
2013-4-29,67,60,48,63,56,47,99,85,65,30.17,30.10,7,2,7,0.02
2013-4-30,71,62,54,61,57,54,99,84,58,30.27,30.19,8,2,8,0.12
2013-5-1,59,56,50,56,53,50,99,92,80,30.40,30.29,9,3,9,0.00
2013-5-2,55,51,48,55,50,48,99,99,99,30.39,30.33,8,2,8,0.15
2013-5-3,59,54,45,56,49,45,99,85,68,30.34,30.23,11,4,11,0.05
2013-5-4,52,45,39,47,43,38,99,95,79,30.22,30.10,11,5,11,0.00
2013-5-5,47,44,40,46,44,40,99,99,99,30.14,29.94,24,6,24,1.76
2013-5-6,60,53,48,59,52,44,99,95,63,30.01,29.91,11,3,11,2.03
2013-5-7,60,51,40,53,48,40,99,90,74,30.04,29.99,10,3,10,0.15
2013-5-8,60,54,46,55,51,46,99,91,72,30.11,30.03,15,4,15,0.02
2013-5-9,76,64,48,58,53,47,99,70,42,30.25,30.13,14,4,14,0.00
2013-5-10,77,60,45,61,54,45,99,83,48,30.25,30.13,8,2,8,0.06
2013-5-11,74,60,52,60,56,52,99,88,70,30.14,30.00,15,3,15,0.25
2013-5-12,58,51,44,52,38,27,99,66,38,30.14,29.99,14,7,14,0.01
2013-5-13,57,47,37,30,27,21,73,47,25,30.24,30.12,16,7,16,0.00
2013-5-14,67,56,29,41,35,29,99,49,32,30.31,30.25,8,2,8,0.00
2013-5-15,82,69,48,55,49,42,90,51,30,30.23,30.16,21,9,21,0.04
2013-5-16,77,70,60,52,49,44,63,48,31,30.22,30.13,17,7,17,0.00
2013-5-17,82,66,48,62,57,46,99,77,42,30.26,29.49,10,2,10,0.14
2013-5-18,60,59,56,60,59,56,99,99,99,30.29,30.22,8,1,8,0.47
2013-5-19,64,61,59,63,61,59,99,99,99,30.26,30.21,5,1,5,0.01
2013-5-20,74,67,58,70,64,58,99,91,68,30.29,30.22,12,4,12,0.15
2013-5-21,82,67,57,73,63,57,99,88,53,30.24,30.15,6,2,6,0.94
2013-5-22,79,69,55,71,66,55,99,89,70,30.20,30.10,9,2,9,0.22
2013-5-23,76,67,56,70,59,52,99,78,46,30.15,30.04,11,3,11,0.18
2013-5-24,59,54,46,54,44,-10,99,72,42,30.23,30.02,26,10,26,0.07
2013-5-25,72,59,42,38,34,28,77,45,22,30.38,30.29,22,8,22,0.00
2013-5-26,70,57,47,48,41,36,99,58,34,30.38,30.30,11,4,11,0.00
2013-5-27,78,59,42,63,52,42,99,81,52,30.38,30.30,6,2,6,0.00
2013-5-28,82,73,52,68,62,52,99,69,51,30.37,30.29,8,2,8,0.00
2013-5-29,93,78,53,76,63,53,99,62,48,30.39,30.32,27,4,27,0.00
2013-5-30,81,72,55,68,63,55,99,76,55,30.42,30.35,5,2,5,0.00
2013-5-31,80,74,55,68,63,55,99,69,53,30.38,30.30,31,3,31,0.19
2013-6-1,81,69,59,69,63,59,99,85,57,30.31,30.21,8,2,8,0.00
2013-6-2,71,65,61,70,64,61,99,98,90,30.23,30.11,8,2,8,0.21
2013-6-3,79,72,59,69,61,55,99,69,48,30.12,30.07,16,4,16,0.01
2013-6-4,72,64,55,68,62,54,99,95,78,30.26,30.16,6,1,6,0.22
2013-6-5,70,62,57,67,62,57,99,99,91,30.28,30.18,5,1,5,0.12
2013-6-6,72,66,60,72,65,60,99,99,99,30.18,30.00,6,1,6,1.23
2013-6-7,73,65,60,69,64,59,99,97,84,30.05,29.90,18,4,18,0.90
2013-6-8,78,62,56,70,60,56,99,95,63,30.19,30.03,8,2,8,0.20
2013-6-9,80,65,59,72,64,59,99,98,68,30.33,30.24,8,2,8,2.40
2013-6-10,76,68,62,75,66,58,99,95,63,30.24,30.08,11,2,11,1.58
2013-6-11,78,72,59,65,61,59,99,70,55,30.20,30.11,17,5,17,0.07
2013-6-12,86,78,59,74,69,59,99,75,58,30.22,30.17,18,4,18,0.00
2013-6-13,87,69,60,68,64,-11,99,86,44,30.15,29.93,26,8,26,0.52
2013-6-14,74,64,51,57,54,-23,99,71,47,30.24,30.01,19,5,19,0.00
2013-6-15,75,54,46,62,51,46,99,92,56,30.31,30.22,5,1,5,0.00
2013-6-16,78,66,54,70,62,54,99,88,60,30.30,30.23,5,1,5,0.00
2013-6-17,79,67,62,72,66,61,99,95,74,30.25,30.16,6,1,6,0.05
2013-6-18,71,65,60,71,65,59,99,99,99,30.17,30.03,11,2,11,0.35
2013-6-19,78,65,56,69,62,56,99,92,71,30.31,30.12,5,1,5,0.01
2013-6-20,79,65,56,70,64,56,99,96,74,30.40,30.30,4,1,4,0.00
2013-6-21,83,74,60,69,64,59,99,74,51,30.43,30.37,5,2,7,0.00
2013-6-22,83,66,50,66,58,4,99,81,10,30.41,30.32,4,1,4,0.09
2013-6-23,85,68,56,74,65,56,99,91,52,30.40,30.32,6,1,6,0.00
2013-6-24,83,71,58,76,68,3,99,91,62,30.40,30.31,10,1,10,0.79
2013-6-25,84,74,60,75,70,60,99,87,63,30.33,30.28,11,2,11,0.14
2013-6-26,85,72,60,75,68,60,99,88,57,30.25,30.14,10,4,10,0.08
2013-6-27,80,71,60,73,68,60,99,91,78,30.16,29.99,13,4,13,0.08
2013-6-28,83,75,64,71,67,63,99,76,53,30.03,29.89,19,6,19,0.06
2013-6-29,81,67,56,69,62,55,99,85,51,29.95,29.86,7,1,7,0.00
2013-6-30,86,65,54,69,62,54,99,91,55,30.05,29.93,7,2,7,1.67
2013-7-1,75,66,61,73,66,40,99,98,90,30.17,30.02,7,2,7,0.87
2013-7-2,74,67,61,72,65,10,99,96,10,30.28,30.16,27,2,27,0.44
2013-7-3,69,65,60,68,65,8,99,99,99,30.38,30.30,11,2,11,2.28
2013-7-4,70,66,58,70,66,58,99,99,99,30.41,30.35,11,2,11,2.55
2013-7-5,79,70,63,77,70,63,99,99,92,30.42,30.36,10,2,10,0.33
2013-7-6,78,68,65,77,67,65,99,99,99,30.40,30.31,10,2,10,0.59
2013-7-7,76,68,63,76,68,63,99,99,99,30.36,30.28,6,1,6,1.23
2013-7-8,86,74,63,74,67,63,99,83,55,30.38,30.32,7,2,7,0.01
2013-7-9,87,71,62,75,67,-24,99,87,54,30.38,30.32,10,2,10,0.00
2013-7-10,86,70,61,80,69,9,99,95,10,30.75,29.16,13,2,13,0.42
2013-7-11,77,68,63,76,68,62,99,97,88,30.75,29.18,9,2,9,0.05
2013-7-12,79,65,59,75,65,59,99,97,77,30.37,28.81,9,2,9,0.89
2013-7-13,74,63,60,72,63,60,99,99,88,30.32,29.65,11,2,11,0.12
2013-7-14,73,66,64,72,66,64,99,99,99,30.45,29.58,12,3,12,1.49
2013-7-15,82,71,65,77,69,65,99,93,71,30.93,29.59,7,2,7,0.00
2013-7-16,89,68,47,73,65,46,99,91,56,30.93,30.01,7,2,8,0.00
2013-7-17,90,75,64,76,70,64,99,86,63,30.84,29.57,6,2,6,0.34
2013-7-18,86,67,61,82,66,60,99,96,73,30.90,30.25,4,1,4,0.00
2013-7-19,84,75,61,81,72,60,99,90,73,35.38,29.07,6,1,6,0.01
2013-7-20,80,70,64,76,69,64,99,97,86,30.49,29.45,5,1,5,0.00
2013-7-21,78,67,64,75,66,64,99,97,85,30.57,29.53,5,2,5,0.00
2013-7-22,79,73,62,75,71,62,99,94,84,30.56,29.52,5,1,5,0.01
2013-7-23,78,75,65,70,67,64,99,79,68,30.50,29.68,11,4,11,0.01
2013-7-24,83,75,62,72,68,62,99,80,64,30.50,29.33,8,3,8,0.01
2013-7-25,81,65,59,71,64,58,99,96,72,30.65,30.07,2,0,2,0.00
2013-7-26,73,69,67,72,68,67,99,98,96,30.38,30.13,3,1,3,0.00
2013-7-27,77,71,63,76,71,63,99,98,90,35.35,29.25,7,1,7,2.20
2013-7-28,78,71,60,72,66,59,99,86,64,35.37,0.00,8,3,8,0.26
2013-7-29,80,67,54,66,59,54,99,80,50,0.00,40.00,9,4,9,0.00
2013-7-30,74,71,63,69,66,59,99,85,77,30.75,0.00,4,2,4,0.00
2013-7-31,77,64,60,68,64,59,99,99,99,30.67,0.00,25,1,25,0.31
2013-8-1,81,72,63,73,68,62,99,87,62,0.00,40.00,8,4,9,0.11
2013-8-2,82,75,60,72,68,60,99,81,60,0.00,40.00,8,3,8,0.00
2013-8-3,82,78,73,71,68,62,78,72,56,0.00,40.00,5,3,5,0.00
2013-8-4,78,72,65,69,63,59,99,74,52,0.00,40.00,14,6,14,0.13
2013-8-5,80,74,63,71,66,19,99,77,60,35.40,29.66,5,2,5,0.25
2013-8-6,79,72,63,76,70,63,99,93,82,30.64,29.73,2,1,2,0.00
2013-8-7,68,66,64,68,65,64,99,99,99,35.36,35.36,5,1,5,0.52
2013-8-8,77,67,64,77,67,64,99,99,99,0.00,0.00,4,1,4,0.04
2013-8-9,85,72,65,78,70,64,99,96,76,0.00,0.00,4,1,4,0.02
2013-8-10,86,70,63,78,69,63,99,96,71,0.00,40.00,6,2,6,0.59
2013-8-11,84,71,62,78,68,61,99,93,70,0.00,40.00,9,2,9,0.09
2013-8-12,74,68,66,74,68,65,99,99,99,35.42,35.42,9,3,9,0.01
2013-8-13,81,72,64,78,71,63,99,98,86,35.40,30.06,20,3,20,0.04
2013-8-14,75,66,55,64,59,55,99,81,54,32.08,27.68,17,4,17,0.17
2013-8-15,78,61,47,70,59,47,99,94,78,31.88,29.59,4,2,4,0.00
2013-8-16,75,64,48,65,60,48,99,86,65,32.14,29.46,28,2,28,0.00
2013-8-17,66,59,52,64,58,52,99,98,89,31.70,29.82,2,1,2,0.40
2013-8-18,74,63,59,73,63,58,99,99,97,31.64,30.43,5,1,5,0.31
2013-8-19,72,67,61,72,66,60,99,99,99,32.35,31.02,4,1,4,0.09
2013-8-20,83,73,56,76,70,56,99,91,70,32.20,30.94,6,2,6,0.00
2013-8-21,74,66,61,73,66,60,99,99,97,32.01,31.12,5,1,5,0.00
2013-8-22,82,70,62,75,67,62,99,91,66,31.98,31.50,8,3,8,0.05
2013-8-23,80,71,59,75,69,58,99,92,80,32.40,30.07,11,3,11,0.02
2013-8-24,80,65,52,66,59,52,99,85,47,30.22,28.78,5,1,5,0.00
2013-8-25,78,61,49,68,57,49,99,89,57,29.68,27.28,7,1,7,0.00
2013-8-26,82,72,48,68,63,48,99,73,54,30.32,27.40,13,3,13,0.00
2013-8-27,78,68,60,73,66,60,99,94,75,30.40,28.35,14,5,14,0.01
2013-8-28,84,76,65,77,72,64,99,89,71,30.49,29.19,11,4,11,0.00
2013-8-29,86,72,67,75,69,67,99,92,60,35.00,34.89,17,3,17,0.01
2013-8-30,68,68,68,68,68,68,99,99,99,35.29,35.28,2,2,4,0.00
2013-8-31,83,69,62,78,68,62,99,98,76,30.49,29.36,5,1,5,0.27
2013-9-1,84,67,60,80,66,59,99,98,88,30.24,29.17,8,1,8,0.12
2013-9-2,63,63,62,63,62,62,99,99,99,29.57,29.53,0,0,2,0.00
2013-9-3,80,73,61,72,66,61,99,81,62,30.24,28.54,14,5,14,0.04
2013-9-4,82,66,56,73,62,56,99,90,65,30.38,27.60,7,2,7,0.00
2013-9-5,83,72,53,68,62,53,99,72,47,30.40,28.13,11,4,11,0.00
2013-9-6,80,69,9,73,65,9,99,87,67,30.24,27.72,25,2,25,0.11
2013-9-7,80,64,51,73,63,51,99,95,75,30.38,27.85,6,1,6,0.00
2013-9-8,80,67,55,72,65,55,99,92,65,30.00,28.43,8,2,8,0.00
2013-9-9,82,73,56,77,71,56,99,94,78,30.02,28.40,6,1,6,0.00
2013-9-10,85,69,58,77,66,58,99,92,71,29.88,28.51,6,1,6,0.00
2013-9-11,89,74,60,76,69,59,99,86,53,30.34,28.34,9,2,9,0.00
2013-9-12,82,73,63,78,71,63,99,93,73,30.35,28.89,13,4,13,0.19
2013-9-13,73,67,51,66,58,51,99,77,53,29.75,27.55,21,7,21,0.34
2013-9-14,74,64,43,61,55,43,99,75,58,29.36,27.06,8,3,8,0.00
2013-9-15,74,59,46,66,57,45,99,95,76,29.46,27.94,5,1,5,0.00
2013-9-16,73,62,49,70,61,49,99,98,86,29.06,27.68,10,2,10,0.00
2013-9-17,65,57,52,60,56,52,99,96,77,29.12,27.73,5,1,5,0.00
2013-9-18,67,56,50,62,55,50,99,99,82,28.57,27.33,4,1,4,0.00
2013-9-19,73,65,57,71,64,57,99,98,87,29.68,28.12,7,2,7,0.00
2013-9-20,80,72,57,73,67,57,99,87,66,30.53,28.51,11,3,11,0.00
2013-9-21,64,60,58,64,56,-100,99,99,99,30.21,28.70,10,3,10,0.71
2013-9-22,72,56,50,70,53,49,99,93,63,29.14,27.02,13,5,13,0.00
2013-9-23,72,60,42,64,57,42,99,91,72,30.33,26.99,7,2,7,0.01
2013-9-24,75,59,45,68,58,45,99,96,76,30.53,27.83,4,1,4,0.00
2013-9-25,59,57,54,59,56,54,99,99,99,29.56,28.61,4,1,4,0.33
2013-9-26,72,58,50,67,56,50,99,94,67,30.30,27.68,3,0,3,0.00
2013-9-27,77,64,42,69,60,42,99,87,63,30.42,27.53,7,1,7,0.00
2013-9-28,68,59,46,64,58,46,99,95,83,29.54,28.12,6,1,6,0.00
2013-9-29,70,59,44,64,57,44,99,95,69,29.93,27.55,4,1,4,0.00
2013-9-30,72,57,49,64,56,49,99,97,74,30.16,27.99,4,0,4,0.00
2013-10-1,76,65,45,67,59,45,99,82,54,30.39,27.42,10,2,10,0.00
2013-10-2,78,65,48,69,59,48,99,84,57,0.00,0.00,10,2,10,0.00
2013-10-3,81,71,50,71,65,50,99,82,62,30.42,27.79,8,2,8,0.00
2013-10-4,82,62,50,72,59,50,99,93,57,30.36,27.75,6,2,6,0.00
2013-10-5,84,63,50,71,60,50,99,92,61,30.42,27.87,4,1,4,0.00
2013-10-6,74,64,55,72,64,55,99,97,83,30.18,28.75,8,2,8,0.00
2013-10-7,78,56,51,62,56,11,99,99,94,29.74,28.53,16,6,16,1.43
2013-10-8,71,58,41,56,50,40,99,78,50,30.06,27.03,10,3,10,0.19
2013-10-9,76,60,34,53,47,34,99,67,28,30.17,26.60,7,2,7,0.00
2013-10-10,69,58,39,55,46,39,99,67,10,29.99,27.02,15,6,15,0.01
2013-10-11,71,64,51,57,47,40,99,57,36,29.73,27.83,24,7,24,0.00
2013-10-12,68,59,54,61,57,52,99,94,74,29.02,27.82,8,3,8,0.00
2013-10-13,70,59,55,70,59,55,99,99,99,29.94,27.87,4,1,4,0.04
2013-10-14,67,60,54,66,59,53,99,99,91,30.13,28.17,9,1,9,0.01
2013-10-15,68,58,51,64,56,51,99,94,80,29.99,28.16,5,1,5,0.08
2013-10-16,71,60,45,64,57,45,99,92,70,30.09,27.68,5,2,5,0.00
2013-10-17,65,59,53,65,59,53,99,99,99,30.12,28.51,6,1,6,0.08
2013-10-18,68,53,45,56,50,44,99,90,49,29.80,27.09,11,4,11,0.00
2013-10-19,53,53,47,53,52,46,99,99,92,28.86,27.66,4,1,4,0.00
2013-10-20,64,46,36,45,36,22,99,77,24,28.36,27.07,11,3,11,0.00
2013-10-21,66,54,35,54,47,35,99,80,46,30.10,26.67,8,2,8,0.00
2013-10-22,64,56,44,53,44,34,99,70,34,30.14,27.74,16,3,16,0.01
2013-10-23,51,41,31,46,31,24,99,69,41,29.79,27.35,23,9,23,0.07
2013-10-24,49,38,29,30,27,20,94,64,34,27.60,27.36,19,6,19,0.00
2013-10-25,39,32,25,33,24,19,99,73,46,0.00,0.00,24,7,24,0.12
2013-10-26,54,35,18,32,22,12,99,67,19,28.63,27.13,7,2,7,0.00
2013-10-27,63,50,42,48,34,17,92,60,17,29.12,27.05,22,6,22,0.01
2013-10-28,59,54,48,56,52,48,99,94,75,29.70,27.65,6,1,6,0.00
2013-10-29,68,54,41,56,50,41,99,88,51,29.42,27.01,6,2,6,0.00
2013-10-30,70,63,52,58,52,49,99,70,47,30.19,27.99,17,4,17,0.05
2013-10-31,59,55,52,59,55,52,99,99,99,29.57,28.31,10,3,10,0.00
2013-11-1,78,65,54,62,57,47,99,78,37,30.79,28.62,9,3,9,0.19
2013-11-2,57,49,43,47,34,22,96,59,30,29.20,27.03,21,7,21,0.00
2013-11-3,51,42,34,38,29,20,99,63,31,28.69,27.04,17,5,17,0.00
2013-11-4,51,38,30,33,23,5,99,63,15,28.80,27.03,5,2,5,0.00
2013-11-5,56,41,28,45,31,9,99,76,19,28.15,27.03,5,1,5,0.01
2013-11-6,60,51,46,55,50,45,99,96,79,29.66,28.09,6,2,6,0.09
2013-11-7,57,46,34,57,42,27,99,88,69,29.31,27.77,19,6,19,0.05
2013-11-8,45,35,27,27,14,-7,77,48,11,28.02,27.05,17,7,17,0.04
2013-11-9,54,41,26,22,12,-4,74,34,10,29.17,27.22,5,1,5,0.00
2013-11-10,59,47,38,27,7,-9,51,22,10,0.00,40.00,17,8,17,0.00
2013-11-11,60,48,25,15,-1,-12,63,15,10,30.09,0.00,9,2,9,0.00
2013-11-12,47,27,19,31,12,-9,86,59,10,28.57,26.58,25,9,25,0.02
2013-11-13,37,29,17,10,-2,-16,73,31,10,28.72,0.00,21,7,21,0.01
2013-11-14,56,41,17,13,-3,-19,84,20,10,29.78,26.61,14,4,14,0.00
2013-11-15,56,40,27,12,5,-3,45,25,10,28.23,27.42,4,1,4,0.00
2013-11-16,55,48,45,54,48,44,99,99,99,29.10,27.71,6,1,6,0.01
2013-11-17,52,51,50,52,50,42,99,97,69,29.38,28.57,7,2,7,0.20
2013-11-18,60,50,38,53,31,-3,99,52,10,30.18,27.08,26,9,26,0.07
2013-11-19,48,39,30,25,9,-8,81,37,10,29.66,27.06,25,4,25,0.04
2013-11-20,46,39,25,26,16,6,94,44,20,29.31,27.08,10,3,10,0.00
2013-11-21,52,46,31,50,45,28,99,96,80,30.01,27.75,8,1,8,0.08
2013-11-22,67,54,46,66,54,46,99,99,92,30.42,28.31,10,2,10,0.07
2013-11-23,51,43,32,51,38,17,99,84,49,28.86,26.61,24,8,24,0.07
2013-11-24,29,20,14,5,-21,-31,54,17,10,29.06,0.00,27,7,27,0.01
2013-11-25,29,25,15,1,-23,-31,34,11,10,29.14,26.86,6,2,6,0.00
2013-11-26,42,39,26,41,39,21,99,99,82,29.24,27.17,8,2,8,2.39
2013-11-27,41,22,15,41,19,4,99,90,61,28.93,26.79,35,9,35,0.08
2013-11-28,49,33,13,7,-8,-20,72,24,10,28.28,0.00,21,4,21,0.01
2013-11-29,50,32,20,18,-3,-20,91,27,10,28.99,27.02,11,3,11,0.00
2013-11-30,42,33,20,18,-2,-17,87,34,10,28.15,26.65,5,2,5,0.00
2013-12-1,53,33,20,32,13,-7,99,57,10,28.96,27.01,10,2,10,0.00
2013-12-2,51,42,24,39,25,12,99,55,21,30.46,27.06,6,1,6,0.00
2013-12-3,57,49,36,48,44,31,99,86,61,30.53,28.11,8,2,8,0.01
2013-12-4,53,49,45,53,49,45,99,99,99,30.45,28.46,3,1,3,0.01
2013-12-5,61,56,51,61,55,51,99,99,99,30.31,28.73,4,1,4,0.25
2013-12-6,62,60,59,61,19,3,99,33,10,30.30,29.62,13,3,13,0.14
2013-12-7,51,39,36,47,38,18,99,95,28,28.07,26.95,17,4,17,0.01
2013-12-8,33,30,28,33,30,28,99,99,99,27.81,27.05,4,0,4,0.12
2013-12-9,52,46,31,52,38,-7,99,85,10,29.46,27.25,11,3,11,0.07
2013-12-10,44,33,23,44,25,0,99,76,38,29.46,26.72,34,6,34,0.26
2013-12-11,47,36,20,7,-11,-22,56,14,10,0.00,40.00,14,3,14,0.00
2013-12-12,33,25,20,6,-17,-28,53,18,10,28.35,0.00,22,6,22,0.00
2013-12-13,22,21,19,-17,-27,-29,17,10,10,27.42,26.58,12,3,12,0.00
2013-12-16,47,33,24,27,15,-11,99,60,10,0.00,40.00,11,5,11,0.02
2013-12-17,53,40,28,31,10,-9,99,40,10,27.94,27.03,20,6,20,0.09
2013-12-18,40,29,22,6,-10,-23,46,21,10,0.00,40.00,24,7,24,0.11
2013-12-19,63,38,23,21,2,-14,82,32,10,27.61,27.01,6,2,6,0.00
2013-12-20,60,44,32,23,1,-17,50,19,10,28.17,27.05,4,1,4,0.00
2013-12-21,57,52,43,55,48,22,99,89,41,28.82,27.49,7,2,7,0.40
2013-12-22,58,54,52,53,5,-3,99,18,10,29.44,28.95,14,3,14,2.23
2013-12-23,54,47,36,47,17,-8,99,49,10,29.31,28.35,24,5,24,0.41
2013-12-24,29,22,15,27,11,0,99,63,36,0.00,0.00,29,8,29,0.00
2013-12-25,34,20,11,13,-8,-30,99,40,10,28.54,0.00,7,1,7,0.00
2013-12-26,44,29,17,12,3,-14,64,38,10,28.08,26.65,21,4,21,0.00
2013-12-27,48,30,18,24,6,-18,99,52,10,29.75,26.58,11,2,11,0.00
2013-12-28,51,34,19,41,14,-14,99,63,10,28.91,26.60,8,1,8,0.18
2013-12-29,48,39,18,46,39,18,99,99,87,28.98,27.75,31,7,31,0.60
2013-12-30,40,35,29,38,34,29,99,98,85,28.94,27.44,22,7,22,0.00
2013-12-31,34,28,22,29,14,-15,99,65,11,28.10,27.02,21,6,26,0.04
2014-1-1,44,31,19,27,4,-20,99,43,10,29.68,26.69,10,2,10,0.00
2014-1-2,45,32,14,45,30,13,99,94,72,29.79,26.74,21,2,21,0.24